Friday, October 24, 2014
14:43 UTC
  |  Log In   |  Register Free
Airport Search:

Livermore Municipal Airport
(KLVK)

FAA data valid effective September 18, 2014 - November 13, 2014 (unless otherwise noted).

 
 
 
 
 
 
 
 
 
 
 
 
 
 

Current Aviation Weather for Livermore Municipal Airport (KLVK)

The most recent METAR observation for KLVK was updated at: 1412
METAR Summary (Translated METAR)
KLVK
241253Z AUTO 00000KT 10SM CLR 12/10 A2997 RMK AO2 SLP147 T01170100
KHWD
241354Z 04003KT 10SM CLR 13/12 A2996 RMK AO2 SLP153 T01330122
(14.5 nm SW from KLVK)
KOAK
241353Z 00000KT 10SM CLR 13/10 A2996 RMK AO2 SLP144 T01330100 $
(19.1 nm NW from KLVK)
TAF Summary (Translated TAF)
KOAK
(19.1 nm NW from KLVK)
241125Z 2412/2518 11006KT P6SM FEW010 FM242000 25010KT P6SM SCT250 FM250400 20009KT P6SM BKN015 BKN150 FM251200 16010KT P6SM OVC040 TEMPO 2514/2518 -RA
  Airport Weather Conditions for KLVK

 Current Weather at LVK
53° F
Fair
North winds at 0.0 mph
LVK NOAA Radar

Pressure: 29.97 in
Humidity: 89%
Wind: Calm
Dew Point: 50.0°F
Visibility: 10.00 mi


Airport Weather Forecast for KLVK

Translated METAR and TAF for KLVK
Translated METAR for KLVK (1438 UTC 24 October 2014)
found at http://aviationweather.gov/adds/metars/
 
METAR text: KLVK 241253Z AUTO 00000KT 10SM CLR 12/10 A2997 RMK AO2 SLP147 T01170100
Conditions at: KLVK (LIVERMORE , CA, US) observed 1253 UTC 24 October 2014
Temperature: 11.7°C (53°F)
Dewpoint: 10.0°C (50°F) [RH = 89%]
Pressure (altimeter): 29.97 inches Hg (1015.0 mb)
[Sea-level pressure: 1014.7 mb]
Winds: calm
Visibility: 10 or more miles (16+ km)
Ceiling: at least 12,000 feet AGL
Clouds: sky clear below 12,000 feet AGL
Weather: automated observation with no human augmentation;
there may or may not be significant weather present at this time
Translated TAF for KLVK

There is no translated TAF available for this airport

Find All Airport Services Find A Hotel Find A Rental Car Find A Golf Course Find A Restaurant $100 Hamburger



FBO's on the Field
FBO Company Facility Photos Services Transportation Aviation Fuel Prices: Prices include tax
Catering Weather Repair Courtesy Rental Type 100LL JetA JetA+ MOGAS 8087
 
Livermore Municipal Airport

This FBO has not yet been rated
FS:Ascent
Last Updated: Oct-22
Login to update fuel prices
SS:
Contact Livermore Municipal AirportMore FBO Information
 
Add another FBO Facility Photos Catering Weather Repair Courtesy Rental Type 100LL JetA JetA+ MOGAS 8087
Services Transportation Aviation Fuel Prices: Prices include tax


model-print
model-print
model-print
model-print